Time;durP1;ratioP1;P1;durP2;ratioP2;P2;SDS_P1;SDS_P2;PMS_P1;PMS_P2;Temp;Humidity;BMP_temperature;BMP_pressure;BME280_temperature;BME280_humidity;BME280_pressure;Samples;Min_cycle;Max_cycle;Signal;HPM_P1;HPM_P2
2022/04/29 00:00:33;;;;;;;10.23;6.45;;;9.70;99.90;;;;;;5056538;28;20025;-80
2022/04/29 00:02:59;;;;;;;7.15;5.57;;;9.60;99.90;;;;;;5049789;28;22254;-79
2022/04/29 00:05:25;;;;;;;8.93;7.05;;;9.60;99.90;;;;;;5051022;28;20100;-79
2022/04/29 00:07:51;;;;;;;7.30;6.10;;;9.50;99.90;;;;;;5055293;28;20017;-80
2022/04/29 00:10:17;;;;;;;8.60;6.18;;;9.50;99.90;;;;;;5051615;28;20555;-80
2022/04/29 00:12:46;;;;;;;7.72;6.07;;;9.50;99.90;;;;;;5057234;28;20052;-79
2022/04/29 00:15:13;;;;;;;8.10;7.07;;;9.30;99.90;;;;;;5069535;28;20029;-80
2022/04/29 00:17:39;;;;;;;8.07;6.75;;;9.30;99.90;;;;;;5059959;28;20029;-79
2022/04/29 00:20:06;;;;;;;7.28;6.57;;;9.20;99.90;;;;;;5058462;28;20034;-80
2022/04/29 00:22:32;;;;;;;10.68;7.72;;;9.10;99.90;;;;;;5054187;28;20028;-79
2022/04/29 00:24:57;;;;;;;7.25;6.55;;;9.20;99.90;;;;;;5052718;28;20374;-80
2022/04/29 00:27:23;;;;;;;13.43;7.18;;;9.20;99.90;;;;;;5054516;28;20033;-80
2022/04/29 00:29:49;;;;;;;11.50;8.60;;;9.10;99.90;;;;;;5056419;28;20029;-80
2022/04/29 00:32:14;;;;;;;7.00;6.32;;;9.10;99.90;;;;;;5055055;28;20057;-80
2022/04/29 00:34:40;;;;;;;9.73;6.53;;;9.10;99.90;;;;;;5053586;28;20104;-80
2022/04/29 00:37:06;;;;;;;7.20;6.60;;;9.10;99.90;;;;;;5061364;28;20676;-80
2022/04/29 00:39:31;;;;;;;8.35;6.55;;;9.10;99.90;;;;;;5057084;28;20070;-79
2022/04/29 00:41:57;;;;;;;8.35;6.25;;;9.10;99.90;;;;;;5057251;28;20029;-80
2022/04/29 00:44:22;;;;;;;9.00;7.50;;;9.00;99.90;;;;;;5054221;28;20021;-79
2022/04/29 00:46:49;;;;;;;9.05;6.97;;;9.00;99.90;;;;;;5055419;28;20021;-80
2022/04/29 00:49:16;;;;;;;7.50;6.80;;;8.90;99.90;;;;;;5055745;28;20609;-80
2022/04/29 00:51:45;;;;;;;10.25;7.10;;;8.90;99.90;;;;;;5055847;28;20021;-79
2022/04/29 00:54:15;;;;;;;7.13;6.45;;;8.80;99.90;;;;;;5057638;28;20060;-80
2022/04/29 00:56:42;;;;;;;7.70;6.95;;;8.80;99.90;;;;;;5054649;28;20033;-79
2022/04/29 00:59:15;;;;;;;8.65;6.93;;;8.70;99.90;;;;;;5062511;28;20028;-79
2022/04/29 01:01:44;;;;;;;7.85;6.53;;;8.70;99.90;;;;;;5054263;28;20024;-79
2022/04/29 01:04:14;;;;;;;7.60;6.90;;;9.10;99.90;;;;;;5052198;28;20033;-80
2022/04/29 01:06:39;;;;;;;8.43;7.60;;;9.20;99.90;;;;;;5053094;28;20393;-79
2022/04/29 01:09:05;;;;;;;9.93;7.78;;;9.10;99.90;;;;;;5059044;28;20082;-80
2022/04/29 01:11:31;;;;;;;11.00;7.13;;;9.10;99.90;;;;;;5058578;28;20104;-79
2022/04/29 01:13:57;;;;;;;8.13;7.32;;;9.00;99.90;;;;;;5055841;28;20075;-81
2022/04/29 01:16:23;;;;;;;8.07;7.13;;;8.90;99.90;;;;;;5057510;28;20025;-80
2022/04/29 01:18:52;;;;;;;8.65;7.32;;;8.80;99.90;;;;;;5061421;28;20029;-80
2022/04/29 01:21:18;;;;;;;9.38;7.75;;;8.70;99.90;;;;;;5058022;28;20108;-79
2022/04/29 01:23:43;;;;;;;9.50;6.72;;;8.70;99.90;;;;;;5051501;28;20129;-78
2022/04/29 01:26:14;;;;;;;9.25;7.78;;;8.60;99.90;;;;;;5068440;28;20477;-79
2022/04/29 01:28:45;;;;;;;8.20;6.95;;;8.60;99.90;;;;;;5053236;28;20473;-80
2022/04/29 01:31:14;;;;;;;8.23;7.45;;;8.50;99.90;;;;;;5054104;28;20068;-80
2022/04/29 01:33:46;;;;;;;8.95;8.05;;;8.50;99.90;;;;;;5052396;28;20124;-79
2022/04/29 01:36:11;;;;;;;9.90;6.95;;;8.60;99.90;;;;;;5058061;28;20085;-79
2022/04/29 01:38:37;;;;;;;7.88;7.07;;;8.60;99.90;;;;;;5050868;28;20104;-79
2022/04/29 01:41:05;;;;;;;7.97;7.28;;;8.50;99.90;;;;;;5067400;28;20021;-79
2022/04/29 01:43:31;;;;;;;10.23;7.07;;;8.50;99.90;;;;;;5053901;28;20028;-79
2022/04/29 01:45:56;;;;;;;9.90;7.50;;;8.40;99.90;;;;;;5053476;28;20475;-80
2022/04/29 01:48:24;;;;;;;11.25;7.35;;;8.30;99.90;;;;;;5054792;28;20021;-80
2022/04/29 01:50:49;;;;;;;8.68;7.78;;;8.30;99.90;;;;;;5066011;28;20032;-81
2022/04/29 01:53:15;;;;;;;9.57;8.57;;;8.40;99.90;;;;;;5055745;28;20029;-80
2022/04/29 01:55:40;;;;;;;12.02;7.97;;;8.40;99.90;;;;;;5054982;28;20469;-79
2022/04/29 01:58:06;;;;;;;8.18;7.00;;;8.30;99.90;;;;;;5054842;28;20028;-80
2022/04/29 02:00:32;;;;;;;8.40;7.57;;;8.40;99.90;;;;;;5052390;28;20013;-80
2022/04/29 02:02:57;;;;;;;8.43;7.65;;;8.40;99.90;;;;;;5053424;28;20036;-80
2022/04/29 02:05:23;;;;;;;8.95;7.55;;;8.30;99.90;;;;;;5051655;28;20029;-80
2022/04/29 02:07:49;;;;;;;10.05;7.35;;;8.20;99.90;;;;;;5061273;28;20029;-80
2022/04/29 02:10:15;;;;;;;8.25;7.50;;;8.20;99.90;;;;;;5060570;28;20048;-80
2022/04/29 02:12:41;;;;;;;7.85;7.05;;;8.20;99.90;;;;;;5059930;28;20074;-78
2022/04/29 02:15:07;;;;;;;7.78;7.03;;;8.20;99.90;;;;;;5056298;28;20040;-79
2022/04/29 02:17:33;;;;;;;8.93;7.70;;;8.10;99.90;;;;;;5052083;28;20025;-80
2022/04/29 02:19:58;;;;;;;9.93;7.80;;;8.10;99.90;;;;;;5060709;28;20069;-80
2022/04/29 02:22:24;;;;;;;8.43;7.55;;;8.10;99.90;;;;;;5055875;28;20033;-80
2022/04/29 02:24:49;;;;;;;13.30;9.27;;;8.10;99.90;;;;;;5052544;28;20028;-78
2022/04/29 02:27:15;;;;;;;8.80;7.65;;;8.00;99.90;;;;;;5051291;28;20025;-78
2022/04/29 02:29:40;;;;;;;8.90;8.10;;;8.00;99.90;;;;;;5051702;28;20104;-80
2022/04/29 02:32:07;;;;;;;8.70;7.85;;;7.90;99.90;;;;;;5055354;28;20083;-80
2022/04/29 02:34:32;;;;;;;8.55;7.75;;;8.00;99.90;;;;;;5053785;28;20024;-80
2022/04/29 02:36:58;;;;;;;8.55;7.50;;;8.00;99.90;;;;;;5054672;28;20026;-80
2022/04/29 02:39:23;;;;;;;10.43;8.70;;;7.90;99.90;;;;;;5051914;28;20035;-80
2022/04/29 02:41:49;;;;;;;9.82;8.80;;;7.90;99.90;;;;;;5062235;28;20032;-80
2022/04/29 02:44:15;;;;;;;10.05;8.23;;;7.80;99.90;;;;;;5055148;28;20039;-80
2022/04/29 02:47:06;;;;;;;9.98;8.18;;;7.80;99.90;;;;;;5052047;28;20035;-80
2022/04/29 02:49:26;;;;;;;11.32;10.10;;;7.80;99.90;;;;;;5057600;28;20028;-79
2022/04/29 02:51:52;;;;;;;9.60;8.70;;;7.80;99.90;;;;;;5055427;28;20098;-80
2022/04/29 02:54:18;;;;;;;11.13;9.00;;;7.80;99.90;;;;;;5056602;28;20025;-79
2022/04/29 02:56:43;;;;;;;10.30;8.23;;;7.70;99.90;;;;;;5053185;28;20033;-80
2022/04/29 02:59:09;;;;;;;9.45;8.55;;;7.80;99.90;;;;;;5057792;28;20480;-80
2022/04/29 03:01:35;;;;;;;9.82;8.93;;;7.80;99.90;;;;;;5057149;28;20117;-80
2022/04/29 03:04:01;;;;;;;9.43;8.30;;;7.80;99.90;;;;;;5058655;28;20178;-80
2022/04/29 03:06:27;;;;;;;9.75;8.75;;;7.80;99.90;;;;;;5050643;28;20550;-81
2022/04/29 03:08:52;;;;;;;9.38;8.57;;;7.70;99.90;;;;;;5050858;28;20027;-80
2022/04/29 03:11:19;;;;;;;11.07;8.25;;;7.70;99.90;;;;;;5058265;28;20029;-79
2022/04/29 03:13:45;;;;;;;9.35;8.50;;;7.70;99.90;;;;;;5050320;28;20024;-80
2022/04/29 03:16:10;;;;;;;9.18;8.27;;;7.70;99.90;;;;;;5055233;28;20033;-80
2022/04/29 03:18:36;;;;;;;10.90;8.02;;;7.70;99.90;;;;;;5057465;28;20033;-81
2022/04/29 03:21:03;;;;;;;11.63;8.85;;;7.70;99.90;;;;;;5056689;28;20024;-81
2022/04/29 03:23:29;;;;;;;10.30;8.63;;;7.70;99.90;;;;;;5055754;28;20059;-80
2022/04/29 03:25:55;;;;;;;9.35;8.57;;;7.60;99.90;;;;;;5053052;28;20052;-81
2022/04/29 03:28:20;;;;;;;8.75;7.95;;;7.60;99.90;;;;;;5050191;28;20036;-79
2022/04/29 03:30:47;;;;;;;9.75;8.75;;;7.60;99.90;;;;;;5050837;28;20025;-81
2022/04/29 03:33:13;;;;;;;10.18;9.00;;;7.70;99.90;;;;;;5059477;28;20025;-80
2022/04/29 03:35:47;;;;;;;13.13;10.05;;;7.60;99.90;;;;;;5046917;28;20117;-80
2022/04/29 03:38:12;;;;;;;11.38;9.15;;;7.70;99.90;;;;;;5055047;28;20033;-80
2022/04/29 03:40:38;;;;;;;15.80;10.88;;;7.70;99.90;;;;;;5053469;28;20028;-80
2022/04/29 03:43:05;;;;;;;12.93;9.60;;;7.70;99.90;;;;;;5051776;28;20033;-80
2022/04/29 03:45:31;;;;;;;12.68;8.68;;;7.80;99.90;;;;;;5051595;28;20086;-79
2022/04/29 03:47:57;;;;;;;12.35;9.02;;;7.80;99.90;;;;;;5054405;28;20623;-79
2022/04/29 03:50:25;;;;;;;13.38;9.23;;;7.70;99.90;;;;;;5053771;28;20025;-80
2022/04/29 03:52:53;;;;;;;11.93;9.07;;;7.70;99.90;;;;;;5061851;28;20043;-81
2022/04/29 03:55:23;;;;;;;10.95;9.85;;;7.70;99.90;;;;;;5055701;28;20032;-80
2022/04/29 03:57:49;;;;;;;12.27;10.50;;;7.70;99.90;;;;;;5054994;28;20021;-79
2022/04/29 04:00:16;;;;;;;11.00;9.82;;;7.70;99.90;;;;;;5051827;28;20152;-81
2022/04/29 04:02:42;;;;;;;13.27;10.88;;;7.60;99.90;;;;;;5057416;28;20029;-80
2022/04/29 04:05:09;;;;;;;11.52;10.00;;;7.60;99.90;;;;;;5055939;28;20090;-81
2022/04/29 04:07:35;;;;;;;17.10;10.82;;;7.60;99.90;;;;;;5056519;28;20550;-80
2022/04/29 04:10:01;;;;;;;15.68;9.90;;;7.90;99.90;;;;;;5078242;28;20086;-81
2022/04/29 04:12:36;;;;;;;14.20;10.40;;;7.90;99.90;;;;;;5060373;28;20029;-79
2022/04/29 04:15:02;;;;;;;15.05;11.27;;;8.00;99.90;;;;;;5055796;28;20059;-80
2022/04/29 04:17:27;;;;;;;11.77;10.60;;;8.00;99.90;;;;;;5050495;28;20025;-79
2022/04/29 04:19:53;;;;;;;12.18;10.05;;;7.90;99.90;;;;;;5058462;28;20025;-79
2022/04/29 04:22:18;;;;;;;11.07;9.82;;;7.90;99.90;;;;;;5053247;28;20480;-79
2022/04/29 04:24:44;;;;;;;15.18;10.18;;;7.90;99.90;;;;;;5053280;28;20040;-79
2022/04/29 04:27:09;;;;;;;14.70;11.38;;;7.90;99.90;;;;;;5053657;28;20124;-79
2022/04/29 04:29:35;;;;;;;14.75;10.85;;;8.10;99.90;;;;;;5053198;28;20115;-79
2022/04/29 04:32:01;;;;;;;12.43;10.40;;;8.20;99.90;;;;;;5058377;28;20024;-80
2022/04/29 04:37:10;;;;;;;12.75;9.30;;;8.40;99.90;;;;;;5056169;28;20036;-80
2022/04/29 04:39:36;;;;;;;11.65;10.25;;;8.60;99.90;;;;;;5054819;28;20108;-79
2022/04/29 04:42:01;;;;;;;13.60;9.32;;;8.70;99.90;;;;;;5054132;28;20051;-80
2022/04/29 04:44:27;;;;;;;12.70;9.35;;;8.90;99.90;;;;;;5053739;28;20029;-80
2022/04/29 04:46:52;;;;;;;12.05;9.60;;;9.10;99.90;;;;;;5056074;28;20048;-79
2022/04/29 04:49:18;;;;;;;10.85;9.80;;;9.20;99.90;;;;;;5053571;28;20017;-80
2022/04/29 04:51:43;;;;;;;16.75;11.15;;;9.20;99.90;;;;;;5052884;28;20043;-80
2022/04/29 04:54:09;;;;;;;12.85;10.40;;;9.10;99.90;;;;;;5054307;28;20108;-80
2022/04/29 04:56:34;;;;;;;11.93;9.80;;;9.10;99.90;;;;;;5053699;28;20033;-81
2022/04/29 04:59:00;;;;;;;14.27;9.93;;;9.10;99.90;;;;;;5055301;28;20057;-80
2022/04/29 05:01:25;;;;;;;12.23;9.25;;;9.20;99.90;;;;;;5059877;28;20390;-80
2022/04/29 05:03:51;;;;;;;20.45;12.02;;;9.80;99.90;;;;;;5058717;28;20044;-80
2022/04/29 05:06:18;;;;;;;14.90;9.70;;;10.00;99.90;;;;;;5046774;28;20637;-80
2022/04/29 05:08:43;;;;;;;15.23;9.85;;;10.20;99.90;;;;;;5054613;28;20109;-81
2022/04/29 05:11:08;;;;;;;15.32;10.05;;;10.10;99.90;;;;;;5051761;28;20053;-78
2022/04/29 05:13:34;;;;;;;12.77;9.52;;;10.50;99.90;;;;;;5054228;28;20032;-80
2022/04/29 05:15:59;;;;;;;10.60;9.45;;;10.60;99.90;;;;;;5061046;28;20028;-81
2022/04/29 05:18:25;;;;;;;13.05;8.98;;;10.60;99.90;;;;;;5052145;28;20024;-81
2022/04/29 05:20:50;;;;;;;11.48;9.25;;;10.30;99.90;;;;;;5058311;28;20063;-80
2022/04/29 05:23:16;;;;;;;12.68;10.32;;;10.10;99.90;;;;;;5057238;28;20040;-80
2022/04/29 05:25:42;;;;;;;16.30;9.48;;;10.00;99.90;;;;;;5053203;28;20029;-80
2022/04/29 05:28:07;;;;;;;13.20;8.90;;;10.20;99.90;;;;;;5057589;28;20076;-79
2022/04/29 05:30:34;;;;;;;21.52;10.50;;;10.10;99.90;;;;;;5054034;28;20069;-79
2022/04/29 05:33:00;;;;;;;10.85;9.50;;;9.90;99.90;;;;;;5052923;28;20025;-78
2022/04/29 05:35:26;;;;;;;19.73;10.40;;;10.00;99.90;;;;;;5055152;28;20027;-79
2022/04/29 05:37:51;;;;;;;18.45;10.25;;;10.00;99.90;;;;;;5065526;28;20393;-78
2022/04/29 05:43:02;;;;;;;13.88;9.95;;;10.50;99.90;;;;;;5056297;28;20040;-78
2022/04/29 05:45:28;;;;;;;14.38;10.50;;;10.20;99.90;;;;;;5059376;28;20040;-77
2022/04/29 05:47:53;;;;;;;20.77;10.95;;;10.00;99.90;;;;;;5056855;28;20092;-77
2022/04/29 05:50:19;;;;;;;17.20;10.50;;;10.30;99.90;;;;;;5054049;28;20028;-77
2022/04/29 05:52:44;;;;;;;14.32;9.23;;;10.50;99.90;;;;;;5058892;28;20472;-77
2022/04/29 05:55:11;;;;;;;17.60;9.90;;;10.30;99.90;;;;;;5061745;28;20029;-78
2022/04/29 05:57:37;;;;;;;20.90;10.23;;;10.20;99.90;;;;;;5057143;28;20104;-77
2022/04/29 06:00:03;;;;;;;15.43;10.45;;;10.70;99.90;;;;;;5053258;28;20049;-77
2022/04/29 06:02:29;;;;;;;15.65;9.82;;;11.00;99.90;;;;;;5059722;28;20108;-78
2022/04/29 06:04:54;;;;;;;11.98;9.55;;;11.30;99.90;;;;;;5056585;28;20055;-77
2022/04/29 06:07:20;;;;;;;10.65;9.65;;;11.30;99.90;;;;;;5055076;28;20029;-77
2022/04/29 06:09:45;;;;;;;19.83;10.63;;;11.20;99.90;;;;;;5055553;28;20017;-77
2022/04/29 06:12:11;;;;;;;18.23;10.13;;;11.40;99.90;;;;;;5069178;28;20036;-77
2022/04/29 06:14:37;;;;;;;14.73;9.88;;;11.80;99.90;;;;;;5057386;28;20531;-77
2022/04/29 06:17:03;;;;;;;18.60;12.40;;;11.80;99.90;;;;;;5051965;28;20074;-77
2022/04/29 06:19:29;;;;;;;15.35;10.82;;;12.30;99.90;;;;;;5051736;28;20033;-76
2022/04/29 06:21:54;;;;;;;14.77;10.52;;;12.00;99.90;;;;;;5057743;28;20032;-77
2022/04/29 06:24:20;;;;;;;17.38;10.45;;;12.40;99.90;;;;;;5053594;28;20021;-78
2022/04/29 06:26:46;;;;;;;15.30;10.32;;;12.60;99.90;;;;;;5073382;28;20032;-76
2022/04/29 06:29:12;;;;;;;17.55;10.88;;;12.10;99.90;;;;;;5052983;28;20029;-77
2022/04/29 06:31:38;;;;;;;12.50;10.10;;;12.00;99.90;;;;;;5056956;28;20021;-78
2022/04/29 06:34:04;;;;;;;12.30;9.98;;;12.20;99.90;;;;;;5069114;28;20048;-77
2022/04/29 06:36:30;;;;;;;10.40;9.20;;;12.60;99.90;;;;;;5048370;28;20052;-78
2022/04/29 06:38:55;;;;;;;11.50;9.63;;;12.60;99.90;;;;;;5059916;28;20028;-78
2022/04/29 06:41:21;;;;;;;15.15;10.18;;;12.90;99.90;;;;;;5058293;28;20400;-77
2022/04/29 06:43:47;;;;;;;14.75;9.35;;;13.40;99.90;;;;;;5053053;28;20386;-77
2022/04/29 06:46:13;;;;;;;10.80;9.70;;;13.50;99.90;;;;;;5051995;28;20064;-77
2022/04/29 06:48:40;;;;;;;15.60;10.10;;;13.70;99.90;;;;;;5054980;28;20132;-77
2022/04/29 06:51:05;;;;;;;12.85;9.85;;;13.50;99.90;;;;;;5052369;28;20048;-76
2022/04/29 06:53:31;;;;;;;13.38;9.55;;;13.30;99.90;;;;;;5055948;28;20504;-78
2022/04/29 06:55:56;;;;;;;10.73;9.55;;;13.40;99.90;;;;;;5060239;28;20039;-78
2022/04/29 06:58:22;;;;;;;12.98;10.02;;;14.20;99.90;;;;;;5051762;28;20115;-78
2022/04/29 07:00:47;;;;;;;11.02;9.90;;;14.70;99.90;;;;;;5055674;28;20108;-78
2022/04/29 07:03:13;;;;;;;11.07;9.90;;;14.80;99.90;;;;;;5057916;28;20033;-78
2022/04/29 07:05:39;;;;;;;12.38;9.55;;;14.80;99.90;;;;;;5057353;28;20024;-77
2022/04/29 07:08:05;;;;;;;15.73;10.25;;;15.00;99.90;;;;;;5057169;28;20025;-78
2022/04/29 07:10:31;;;;;;;11.07;9.70;;;14.60;99.90;;;;;;5057196;28;20033;-77
2022/04/29 07:12:57;;;;;;;11.70;9.25;;;15.00;99.90;;;;;;5056177;28;20058;-78
2022/04/29 07:15:23;;;;;;;12.02;10.02;;;14.40;99.90;;;;;;5055487;28;20029;-77
2022/04/29 07:17:49;;;;;;;13.88;12.30;;;14.70;99.90;;;;;;5071976;28;20050;-77
2022/04/29 07:20:16;;;;;;;11.23;10.13;;;14.90;99.90;;;;;;5050434;28;20048;-78
2022/04/29 07:22:42;;;;;;;12.43;10.55;;;14.60;99.90;;;;;;5048919;28;20108;-78
2022/04/29 07:25:10;;;;;;;14.50;11.77;;;15.00;99.90;;;;;;5050491;28;20035;-78
2022/04/29 07:27:38;;;;;;;10.60;9.50;;;15.10;99.90;;;;;;5051578;28;20032;-78
2022/04/29 07:30:07;;;;;;;21.83;10.88;;;15.20;99.90;;;;;;5050494;28;20055;-77
2022/04/29 07:32:33;;;;;;;14.10;9.98;;;15.00;99.90;;;;;;5054039;28;20071;-77
2022/04/29 07:43:12;;;;;;;14.75;9.88;;;15.80;99.90;;;;;;5053520;28;20051;-78
2022/04/29 07:45:39;;;;;;;10.35;9.15;;;15.30;99.90;;;;;;5053896;28;20021;-78
2022/04/29 07:48:06;;;;;;;10.80;9.75;;;15.00;99.90;;;;;;5054680;28;20021;-79
2022/04/29 07:50:33;;;;;;;10.65;8.50;;;15.70;99.90;;;;;;5057738;28;20079;-78
2022/04/29 07:53:00;;;;;;;15.48;9.60;;;15.60;99.30;;;;;;5052610;28;20092;-79
2022/04/29 07:55:26;;;;;;;12.63;9.93;;;15.80;99.60;;;;;;5051995;28;20017;-78
2022/04/29 07:57:52;;;;;;;14.40;8.40;;;15.70;99.30;;;;;;5050940;28;20021;-79
2022/04/29 08:00:18;;;;;;;16.10;10.02;;;15.50;99.20;;;;;;5052995;28;20033;-78
2022/04/29 08:02:44;;;;;;;14.98;9.48;;;15.60;99.80;;;;;;5058171;28;20031;-78
2022/04/29 08:05:10;;;;;;;12.63;8.85;;;15.70;99.00;;;;;;5057258;28;20506;-78
2022/04/29 08:07:36;;;;;;;12.52;8.80;;;15.70;97.90;;;;;;5054346;28;20099;-79
2022/04/29 08:10:03;;;;;;;10.20;8.43;;;15.50;98.00;;;;;;5054751;28;20037;-78
2022/04/29 08:12:29;;;;;;;14.38;8.02;;;15.30;99.20;;;;;;5053685;28;20025;-77
2022/04/29 08:14:56;;;;;;;13.68;8.40;;;15.40;99.10;;;;;;5054243;28;20495;-78
2022/04/29 08:17:22;;;;;;;9.35;8.52;;;15.20;99.20;;;;;;5059262;28;20163;-78
2022/04/29 08:19:48;;;;;;;11.80;8.38;;;15.10;99.60;;;;;;5053224;28;20532;-78
2022/04/29 08:22:15;;;;;;;9.00;8.10;;;15.40;99.50;;;;;;5049493;28;20037;-78
2022/04/29 08:24:41;;;;;;;11.15;8.25;;;15.80;98.80;;;;;;5055243;28;20033;-78
2022/04/29 08:27:07;;;;;;;8.75;7.95;;;16.10;98.30;;;;;;5051541;28;20029;-78
2022/04/29 08:29:32;;;;;;;10.23;7.60;;;16.20;97.70;;;;;;5055350;28;20023;-79
2022/04/29 08:31:58;;;;;;;8.50;7.30;;;16.10;97.80;;;;;;5059592;28;20090;-79
2022/04/29 08:34:23;;;;;;;8.73;6.97;;;16.50;97.30;;;;;;5060703;28;20074;-78
2022/04/29 08:36:49;;;;;;;8.00;7.28;;;17.10;95.70;;;;;;5062072;28;20024;-79
2022/04/29 08:39:15;;;;;;;9.75;6.97;;;16.90;95.70;;;;;;5062167;28;20029;-78
2022/04/29 08:41:42;;;;;;;8.07;7.28;;;17.20;94.90;;;;;;5059651;28;20029;-78
2022/04/29 08:44:13;;;;;;;10.45;6.88;;;17.30;95.30;;;;;;5065299;28;20037;-79
2022/04/29 08:46:41;;;;;;;8.48;6.78;;;17.60;94.90;;;;;;5058740;28;20385;-78
2022/04/29 08:49:08;;;;;;;10.25;8.32;;;17.70;94.10;;;;;;5062734;28;20025;-79
2022/04/29 08:51:36;;;;;;;8.82;6.43;;;17.60;94.50;;;;;;5058901;28;20032;-78
2022/04/29 08:54:04;;;;;;;8.13;6.80;;;18.10;93.60;;;;;;5058554;28;20166;-78
2022/04/29 08:59:20;;;;;;;9.20;8.10;;;17.90;93.50;;;;;;5057382;28;20036;-79
2022/04/29 09:01:46;;;;;;;9.07;7.75;;;17.70;93.80;;;;;;5061941;28;20286;-78
2022/04/29 09:04:11;;;;;;;8.05;6.25;;;18.20;93.40;;;;;;5065060;28;20031;-79
2022/04/29 09:06:47;;;;;;;7.20;6.50;;;18.60;92.70;;;;;;5061395;28;20028;-79
2022/04/29 09:09:13;;;;;;;7.32;6.63;;;18.80;91.80;;;;;;5057723;28;20417;-78
2022/04/29 09:11:39;;;;;;;7.47;6.65;;;18.60;91.70;;;;;;5055825;28;20025;-78
2022/04/29 09:14:25;;;;;;;8.10;7.30;;;19.10;91.40;;;;;;5061195;28;20027;-78
2022/04/29 09:16:51;;;;;;;7.32;5.45;;;19.30;90.40;;;;;;5054631;28;20079;-78
2022/04/29 09:19:33;;;;;;;6.80;5.80;;;19.50;88.70;;;;;;5057549;28;20489;-79
2022/04/29 09:22:04;;;;;;;8.80;6.28;;;19.40;88.10;;;;;;5067910;28;20090;-79
2022/04/29 09:24:29;;;;;;;8.25;5.28;;;19.50;89.00;;;;;;5058817;28;20033;-78
2022/04/29 09:26:59;;;;;;;8.15;5.30;;;19.80;86.00;;;;;;5059625;28;20062;-78
2022/04/29 09:29:25;;;;;;;8.60;5.00;;;19.80;84.10;;;;;;5053103;28;20025;-79
2022/04/29 09:31:54;;;;;;;5.05;4.53;;;19.30;85.70;;;;;;5052009;28;20310;-77
2022/04/29 09:34:23;;;;;;;5.47;4.90;;;19.40;85.70;;;;;;5053356;28;20025;-79
2022/04/29 09:36:49;;;;;;;9.48;5.50;;;19.70;84.90;;;;;;5065707;28;20048;-78
2022/04/29 09:39:28;;;;;;;6.55;5.85;;;20.20;82.70;;;;;;5052635;28;20501;-76
2022/04/29 09:41:58;;;;;;;6.93;4.90;;;20.60;81.70;;;;;;5043310;28;20031;-78
2022/04/29 09:44:27;;;;;;;7.53;4.97;;;20.70;80.90;;;;;;5051570;28;20028;-77
2022/04/29 09:46:53;;;;;;;6.10;5.50;;;20.20;80.70;;;;;;5054718;28;20146;-77
2022/04/29 09:49:21;;;;;;;8.65;5.03;;;19.90;81.10;;;;;;5050267;28;20086;-76
2022/04/29 09:51:51;;;;;;;5.38;4.85;;;20.50;79.90;;;;;;5054779;28;20029;-76
2022/04/29 09:54:29;;;;;;;6.30;4.60;;;20.70;76.00;;;;;;5050925;28;20512;-77
2022/04/29 09:57:11;;;;;;;5.10;4.50;;;20.40;76.50;;;;;;5050580;28;20051;-76
2022/04/29 09:59:45;;;;;;;5.93;4.43;;;20.90;74.60;;;;;;5046935;28;20028;-76
2022/04/29 10:02:16;;;;;;;5.13;3.80;;;20.70;76.50;;;;;;5051248;28;20036;-76
2022/04/29 10:04:44;;;;;;;9.55;3.78;;;21.00;73.70;;;;;;5052102;28;20017;-75
2022/04/29 10:07:18;;;;;;;3.88;3.45;;;20.50;73.70;;;;;;5051697;28;20045;-77
2022/04/29 10:09:48;;;;;;;9.23;4.43;;;20.30;73.60;;;;;;5051667;28;20120;-76
2022/04/29 10:12:19;;;;;;;4.05;3.65;;;20.00;74.10;;;;;;5051756;28;20025;-77
2022/04/29 10:14:46;;;;;;;6.28;4.18;;;19.90;74.30;;;;;;5051755;28;20546;-77
2022/04/29 10:22:53;;;;;;;4.07;3.50;;;19.70;73.30;;;;;;5045825;28;20064;-76
2022/04/29 10:25:21;;;;;;;5.47;3.25;;;19.90;72.60;;;;;;5050993;28;20087;-76
2022/04/29 10:27:49;;;;;;;3.72;3.30;;;19.80;72.50;;;;;;5055124;28;20028;-75
2022/04/29 10:30:23;;;;;;;3.70;3.00;;;20.20;72.00;;;;;;5055402;28;20021;-76
2022/04/29 10:33:00;;;;;;;3.85;3.53;;;20.40;70.20;;;;;;5050549;28;20385;-76
2022/04/29 10:35:43;;;;;;;5.60;2.90;;;20.30;70.70;;;;;;5056790;28;20025;-77
2022/04/29 10:38:40;;;;;;;3.42;2.83;;;20.20;69.50;;;;;;5054114;28;20032;-77
2022/04/29 10:41:06;;;;;;;4.57;3.08;;;20.20;70.00;;;;;;5065704;28;20057;-77
2022/04/29 10:43:32;;;;;;;2.80;2.50;;;20.20;68.40;;;;;;5059619;28;20094;-76
2022/04/29 10:46:04;;;;;;;4.32;2.63;;;20.40;68.90;;;;;;5054515;28;20380;-76
2022/04/29 10:48:37;;;;;;;5.97;3.03;;;20.60;67.90;;;;;;5050973;28;20021;-77
2022/04/29 10:51:26;;;;;;;3.50;3.00;;;20.50;67.90;;;;;;5053435;28;20029;-77
2022/04/29 10:53:55;;;;;;;3.08;2.78;;;20.50;68.50;;;;;;5052621;28;20057;-77
2022/04/29 10:56:32;;;;;;;4.55;2.50;;;20.60;68.00;;;;;;5051544;28;20454;-77
2022/04/29 10:59:04;;;;;;;2.90;2.60;;;20.80;67.10;;;;;;5049537;28;20420;-77
2022/04/29 11:01:33;;;;;;;5.07;2.53;;;20.90;67.00;;;;;;5044080;28;20028;-76
2022/04/29 11:04:07;;;;;;;2.90;2.55;;;20.90;66.80;;;;;;5052089;28;20025;-77
2022/04/29 11:06:46;;;;;;;2.67;2.28;;;21.00;63.50;;;;;;5045421;28;20449;-77
2022/04/29 11:09:25;;;;;;;4.00;2.40;;;21.00;64.60;;;;;;5055904;28;20028;-76
2022/04/29 11:11:52;;;;;;;2.60;1.85;;;21.20;64.00;;;;;;5050719;28;20135;-77
2022/04/29 11:14:18;;;;;;;3.00;2.10;;;21.40;65.50;;;;;;5060555;28;20507;-77
2022/04/29 11:16:52;;;;;;;5.00;2.10;;;21.60;63.30;;;;;;5052575;28;20052;-77
2022/04/29 11:19:23;;;;;;;2.63;2.42;;;22.10;62.10;;;;;;5051947;28;20026;-76
2022/04/29 11:24:43;;;;;;;2.78;2.50;;;22.00;61.00;;;;;;5057565;28;20504;-76
2022/04/29 11:27:09;;;;;;;2.63;2.00;;;22.00;59.80;;;;;;5049396;28;20107;-76
2022/04/29 11:29:46;;;;;;;2.42;2.22;;;22.20;60.30;;;;;;5050137;28;20016;-76
2022/04/29 11:32:12;;;;;;;5.05;2.40;;;21.80;62.30;;;;;;5064125;28;20035;-77
2022/04/29 11:34:52;;;;;;;3.55;2.17;;;22.00;61.20;;;;;;5052754;28;20024;-77
2022/04/29 11:37:29;;;;;;;2.80;2.55;;;21.30;62.30;;;;;;5051837;28;20059;-76
2022/04/29 11:39:55;;;;;;;2.70;2.30;;;21.80;61.90;;;;;;5054155;28;20025;-78
2022/04/29 11:42:22;;;;;;;2.78;2.58;;;22.10;60.60;;;;;;5061846;28;20025;-77
2022/04/29 11:44:49;;;;;;;2.55;2.35;;;21.90;60.10;;;;;;5054321;28;20514;-77
2022/04/29 11:47:25;;;;;;;2.72;1.80;;;22.20;60.40;;;;;;5050618;28;20045;-76
2022/04/29 11:49:52;;;;;;;2.45;2.25;;;22.70;58.70;;;;;;5049940;28;20018;-76
2022/04/29 11:52:25;;;;;;;2.30;2.10;;;22.30;59.70;;;;;;5061962;28;20029;-77
2022/04/29 11:54:55;;;;;;;3.67;1.80;;;22.00;59.80;;;;;;5046706;28;20021;-78
2022/04/29 11:57:22;;;;;;;4.10;1.85;;;22.40;58.60;;;;;;5057735;28;20025;-78
2022/04/29 11:59:47;;;;;;;2.78;1.63;;;22.60;57.30;;;;;;5049872;28;20031;-77
2022/04/29 12:02:18;;;;;;;2.70;1.80;;;21.90;57.80;;;;;;5047527;28;20025;-77
2022/04/29 12:04:58;;;;;;;2.70;2.10;;;21.60;57.90;;;;;;5052076;28;20433;-77
2022/04/29 12:07:25;;;;;;;2.30;2.13;;;21.10;58.30;;;;;;5052757;28;20037;-76
2022/04/29 12:09:52;;;;;;;2.53;2.28;;;21.60;57.90;;;;;;5054725;28;20021;-77
2022/04/29 12:12:29;;;;;;;4.75;1.90;;;21.90;57.10;;;;;;5055045;28;20493;-77
2022/04/29 12:14:56;;;;;;;3.00;1.90;;;21.50;57.60;;;;;;5056922;28;20021;-76
2022/04/29 12:17:38;;;;;;;2.15;1.63;;;21.30;57.10;;;;;;5054929;28;20493;-76
2022/04/29 12:20:09;;;;;;;2.53;2.05;;;21.70;57.50;;;;;;5054614;28;20032;-76
2022/04/29 12:22:36;;;;;;;2.17;1.95;;;21.90;56.40;;;;;;5055711;28;20028;-76
2022/04/29 12:25:28;;;;;;;2.83;1.88;;;21.70;55.90;;;;;;5054716;28;20024;-76
2022/04/29 12:28:11;;;;;;;2.20;2.00;;;21.90;56.10;;;;;;5050764;28;20385;-76
2022/04/29 12:36:15;;;;;;;3.55;2.50;;;21.70;56.60;;;;;;5052602;28;20428;-76
2022/04/29 12:38:42;;;;;;;3.03;2.28;;;21.70;55.80;;;;;;5054083;28;20017;-77
2022/04/29 12:41:35;;;;;;;4.82;3.35;;;21.30;56.00;;;;;;5053549;28;20032;-77
2022/04/29 12:47:31;;;;;;;3.10;2.22;;;21.40;55.60;;;;;;5047816;28;20089;-76
2022/04/29 12:50:24;;;;;;;2.60;2.40;;;21.40;56.90;;;;;;5049346;28;20044;-76
2022/04/29 12:53:09;;;;;;;3.17;2.00;;;21.80;56.50;;;;;;5055292;28;20013;-77
2022/04/29 12:55:48;;;;;;;2.45;2.10;;;21.90;56.50;;;;;;5049152;28;20078;-76
2022/04/29 12:58:22;;;;;;;3.50;2.28;;;21.90;57.80;;;;;;5047833;28;20540;-76
2022/04/29 13:00:54;;;;;;;3.80;3.38;;;22.20;55.90;;;;;;5049444;28;20053;-76
2022/04/29 13:03:26;;;;;;;3.72;2.75;;;22.00;54.80;;;;;;5049498;28;20056;-77
2022/04/29 13:05:52;;;;;;;3.22;2.80;;;21.90;55.40;;;;;;5050063;28;20104;-76
2022/04/29 13:08:17;;;;;;;7.75;2.17;;;21.90;55.90;;;;;;5044459;28;20107;-77
2022/04/29 13:10:50;;;;;;;2.70;2.50;;;21.70;56.50;;;;;;5046414;28;20466;-77
2022/04/29 13:13:16;;;;;;;4.18;2.45;;;22.10;55.70;;;;;;5045787;28;20401;-76
2022/04/29 13:15:43;;;;;;;2.72;2.53;;;22.20;56.00;;;;;;5054097;28;20017;-76
2022/04/29 13:18:12;;;;;;;2.92;2.42;;;22.10;55.70;;;;;;5048374;28;20033;-76
2022/04/29 13:20:39;;;;;;;1.98;1.88;;;22.10;55.90;;;;;;5048742;28;20067;-77
2022/04/29 13:23:05;;;;;;;3.58;2.22;;;22.30;56.10;;;;;;5051284;28;20027;-77